17:54
Airports
History
Links
Donate
Help keep this website running!
PayPal
Bitcoin
This page is community maintained. The information is intended for PC simulator navigation or reference.
Always use approved charts for navigation.
3NC8
Stephenson Farms
Stephenson Farms (3NC8)
Garysburg, North Carolina, United States (27831)
4
Lat/Lng:36° 26' 26.55" N / 77° 27' 32.91" W
36.440708 / -77.459141
Elevation:138'ft / 42mMSL
ID / ICAO:3NC8
Runways:1
Longest:12-30
Grass 724m / 2,376ft
Nearby Weather18:54 GMT 2009-05-25
Nearby weather at KRZZ, Halifax County located 13.9 nautical miles from 3NC8
Altimeter: 29.85
Visibility: 10.0 statute miles
Wind: 6 knots (from VRB°)
Temp: 33°c / 91°f
Humidity: 31.8%

METAR: KRZZ 251854Z AUTO VRB06KT 10SM CLR 33/14 A2985 RMK AO2 SLP104 T03280144 PNO $

(Powered by phpweather)
Nearby VORs <50NM
Nearby NDBs
Runway 12 / 30
Dimensions:724.2 x 15.2m 2376' x 50'ft
Surface:Grass
Runway 12 [A]Runway 30 [B]
Heading:112°TH 292°TH
Lat:
Lng:
36° 26' 30.99"N
77° 27' 46.56"W
36° 26' 22.11"N
77° 27' 19.25"W
User Notes and Comments
36° 26' 26.55" N / 77° 27' 32.91" W
Distance To
Airport ID:
Nearby Airports
(U) Halifax-northampton Rgnl 12.4 NM
KIXA SW 231°
(U) Halifax County 13.9 NM
KRZZ ( WX ) W 269°
4 Mann 16.7 NM
95W ENE 63°
(U) Emporia-greensville Rgnl 17.1 NM
KEMV N 355°
(R) Enfield-shearin 18.4 NM
NC45 SSW 212°
(U) Tri-county 18.8 NM
KASJ ESE 121°
4 Scotland Neck 19.0 NM
W15 S 171°
VFR Chart
Flight Planning at SkyVector.com